createdAt,value
2023-05-14T00:00:55.800Z,99932.31
2023-05-14T00:03:23.654Z,99931.38
2023-05-14T00:05:52.358Z,99932.13
2023-05-14T00:08:20.189Z,99927.00
2023-05-14T00:10:47.923Z,99920.31
2023-05-14T00:13:15.766Z,99926.81
2023-05-14T00:15:43.618Z,99926.13
2023-05-14T00:18:12.519Z,99937.94
2023-05-14T00:20:41.292Z,99931.97
2023-05-14T00:23:09.418Z,99939.56
2023-05-14T00:25:37.483Z,99929.31
2023-05-14T00:28:05.656Z,99930.66
2023-05-14T00:30:33.893Z,99932.91
2023-05-14T00:33:01.818Z,99928.00
2023-05-14T00:35:29.718Z,99933.06
2023-05-14T00:37:57.909Z,99929.06
2023-05-14T00:40:27.269Z,99941.94
2023-05-14T00:42:55.885Z,99935.94
2023-05-14T00:45:23.776Z,99938.16
2023-05-14T00:47:52.201Z,99941.94
2023-05-14T00:50:20.584Z,99934.88
2023-05-14T00:52:48.405Z,99933.06
2023-05-14T00:55:16.845Z,99932.09
2023-05-14T00:57:45.352Z,99942.28
2023-05-14T01:00:13.674Z,99941.41
2023-05-14T01:02:41.618Z,99948.91
2023-05-14T01:05:10.180Z,99941.59
2023-05-14T01:07:44.092Z,99945.41
2023-05-14T01:10:25.619Z,99952.28
2023-05-14T01:13:14.463Z,99941.25
2023-05-14T01:15:43.166Z,99946.72
2023-05-14T01:18:11.951Z,99948.44
2023-05-14T01:20:39.788Z,99945.53
2023-05-14T01:23:09.469Z,99946.88
2023-05-14T01:25:37.721Z,99940.06
2023-05-14T01:28:13.770Z,99945.94
2023-05-14T01:30:49.365Z,99952.69
2023-05-14T01:33:18.648Z,99953.28
2023-05-14T01:35:46.652Z,99951.22
2023-05-14T01:38:15.597Z,99965.88
2023-05-14T01:40:44.415Z,99966.78
2023-05-14T01:43:12.602Z,99965.88
2023-05-14T01:45:42.542Z,99971.03
2023-05-14T01:48:10.886Z,99969.19
2023-05-14T01:50:38.824Z,99965.19
2023-05-14T01:53:06.797Z,99979.09
2023-05-14T01:55:34.575Z,99971.00
2023-05-14T01:58:02.437Z,99967.59
2023-05-14T02:00:30.674Z,99969.28
2023-05-14T02:03:00.190Z,99965.88
2023-05-14T02:05:28.194Z,99968.69
2023-05-14T02:07:56.136Z,99965.06
2023-05-14T02:10:24.221Z,99975.72
2023-05-14T02:12:53.156Z,99965.53
2023-05-14T02:15:21.363Z,99973.75
2023-05-14T02:17:49.424Z,99975.81
2023-05-14T02:20:17.507Z,99976.09
2023-05-14T02:22:51.571Z,99978.75
2023-05-14T02:25:19.410Z,99969.19
2023-05-14T02:27:49.723Z,99980.44
2023-05-14T02:30:17.641Z,99970.97
2023-05-14T02:32:46.210Z,99980.94
2023-05-14T02:35:14.195Z,99981.38
2023-05-14T02:37:42.130Z,99979.34
2023-05-14T02:40:10.607Z,99982.56
2023-05-14T02:42:38.431Z,99986.63
2023-05-14T02:45:06.951Z,99984.84
2023-05-14T02:47:37.762Z,99991.44
2023-05-14T02:50:06.944Z,99992.81
2023-05-14T02:52:34.956Z,99983.22
2023-05-14T02:55:03.099Z,99992.22
2023-05-14T02:57:33.747Z,99985.88
2023-05-14T03:00:01.621Z,99998.06
2023-05-14T03:02:36.017Z,99994.13
2023-05-14T03:05:04.389Z,99996.78
2023-05-14T03:07:32.218Z,99983.88
2023-05-14T03:10:00.793Z,100000.59
2023-05-14T03:12:28.752Z,99992.44
2023-05-14T03:14:56.615Z,99991.19
2023-05-14T03:17:24.586Z,99988.78
2023-05-14T03:19:52.376Z,99994.47
2023-05-14T03:22:20.468Z,99987.31
2023-05-14T03:24:48.964Z,99991.53
2023-05-14T03:27:16.806Z,99991.44
2023-05-14T03:29:44.613Z,99991.00
2023-05-14T03:32:12.454Z,99996.00
2023-05-14T03:34:40.246Z,99996.00
2023-05-14T03:37:08.203Z,100003.72
2023-05-14T03:39:36.316Z,100005.97
2023-05-14T03:42:06.015Z,100002.97
2023-05-14T03:44:33.808Z,100000.03
2023-05-14T03:47:01.575Z,100003.88
2023-05-14T03:49:29.581Z,99998.25
2023-05-14T03:51:59.534Z,99993.47
2023-05-14T03:54:27.450Z,100001.91
2023-05-14T03:56:55.442Z,100009.19
2023-05-14T03:59:23.214Z,100005.00
2023-05-14T04:01:51.090Z,100018.72
2023-05-14T04:04:20.381Z,100002.94
2023-05-14T04:06:48.259Z,100009.41
2023-05-14T04:09:16.154Z,100001.19
2023-05-14T04:11:43.956Z,100002.53
2023-05-14T04:14:12.079Z,100016.69
2023-05-14T04:16:40.105Z,100013.09
2023-05-14T04:19:08.091Z,100020.31
2023-05-14T04:21:37.123Z,100005.53
2023-05-14T04:24:05.351Z,100021.38
2023-05-14T04:26:33.384Z,100022.09
2023-05-14T04:29:03.236Z,100026.63
2023-05-14T04:31:31.868Z,100030.69
2023-05-14T04:33:59.707Z,100017.81
2023-05-14T04:36:27.471Z,100024.75
2023-05-14T04:38:55.202Z,100019.53
2023-05-14T04:41:23.560Z,100021.97
2023-05-14T04:43:51.812Z,100021.94
2023-05-14T04:46:19.934Z,100019.53
2023-05-14T04:48:48.464Z,100031.44
2023-05-14T04:51:18.801Z,100034.94
2023-05-14T04:53:46.693Z,100028.53
2023-05-14T04:56:14.630Z,100032.78
2023-05-14T04:58:42.507Z,100023.25
2023-05-14T05:01:10.461Z,100023.66
2023-05-14T05:03:38.372Z,100021.97
2023-05-14T05:06:06.485Z,100031.31
2023-05-14T05:08:34.560Z,100023.44
2023-05-14T05:11:02.319Z,100031.50
2023-05-14T05:13:30.083Z,100025.41
2023-05-14T05:15:58.205Z,100034.38
2023-05-14T05:18:26.290Z,100034.50
2023-05-14T05:20:54.208Z,100032.84
2023-05-14T05:23:21.990Z,100030.66
2023-05-14T05:25:50.658Z,100043.81
2023-05-14T05:28:18.425Z,100050.31
2023-05-14T05:30:46.261Z,100046.34
2023-05-14T05:33:14.258Z,100038.56
2023-05-14T05:35:42.116Z,100030.84
2023-05-14T05:38:10.046Z,100033.84
2023-05-14T05:40:37.827Z,100025.50
2023-05-14T05:43:05.806Z,100026.31
2023-05-14T05:45:33.654Z,100018.25
2023-05-14T05:48:01.626Z,100022.28
2023-05-14T05:50:31.861Z,100021.41
2023-05-14T05:52:59.780Z,100023.38
2023-05-14T05:55:27.618Z,100024.94
2023-05-14T05:57:55.480Z,100015.41
2023-05-14T06:00:24.078Z,100016.66
2023-05-14T06:02:54.012Z,100022.81
2023-05-14T06:05:21.995Z,100009.88
2023-05-14T06:07:49.847Z,100029.47
2023-05-14T06:10:17.650Z,100017.78
2023-05-14T06:12:45.689Z,100017.75
2023-05-14T06:15:13.570Z,100015.75
2023-05-14T06:17:41.715Z,100014.34
2023-05-14T06:20:10.016Z,100016.16
2023-05-14T06:22:38.179Z,100005.16
2023-05-14T06:25:06.623Z,100013.50
2023-05-14T06:27:34.342Z,100019.44
2023-05-14T06:30:02.185Z,100020.81
2023-05-14T06:32:33.757Z,100022.69
2023-05-14T06:35:01.666Z,100015.97
2023-05-14T06:37:30.139Z,100018.53
2023-05-14T06:39:58.143Z,100017.41
2023-05-14T06:42:26.740Z,100012.28
2023-05-14T06:44:54.911Z,100007.69
2023-05-14T06:47:25.250Z,100003.22
2023-05-14T06:49:53.175Z,100004.75
2023-05-14T06:52:20.931Z,100017.09
2023-05-14T06:54:48.704Z,100015.88
2023-05-14T06:57:16.580Z,100023.72
2023-05-14T06:59:44.545Z,100024.91
2023-05-14T07:02:12.879Z,100034.91
2023-05-14T07:04:40.783Z,100013.78
2023-05-14T07:07:10.687Z,100018.59
2023-05-14T07:09:38.617Z,100025.16
2023-05-14T07:12:07.237Z,100019.19
2023-05-14T07:14:35.072Z,100036.50
2023-05-14T07:17:02.915Z,100035.81
2023-05-14T07:19:30.865Z,100041.56
2023-05-14T07:21:58.619Z,100037.38
2023-05-14T07:24:26.449Z,100053.16
2023-05-14T07:26:54.720Z,100030.38
2023-05-14T07:29:22.526Z,100044.25
2023-05-14T07:31:50.429Z,100046.41
2023-05-14T07:34:18.734Z,100053.59
2023-05-14T07:36:46.920Z,100048.13
2023-05-14T07:39:14.738Z,100057.72
2023-05-14T07:41:42.525Z,100056.81
2023-05-14T07:44:10.419Z,100043.56
2023-05-14T07:46:38.347Z,100052.63
2023-05-14T07:49:06.107Z,100046.41
2023-05-14T07:51:34.120Z,100049.28
2023-05-14T07:54:20.870Z,100031.44
2023-05-14T07:56:48.667Z,100050.81
2023-05-14T07:59:16.626Z,100048.84
2023-05-14T08:01:44.587Z,100055.81
2023-05-14T08:04:12.535Z,100061.97
2023-05-14T08:06:40.414Z,100060.56
2023-05-14T08:09:08.902Z,100054.16
2023-05-14T08:11:36.755Z,100062.22
2023-05-14T08:14:04.735Z,100055.09
2023-05-14T08:16:35.921Z,100055.94
2023-05-14T08:19:06.553Z,100045.69
2023-05-14T08:21:34.363Z,100047.38
2023-05-14T08:24:02.192Z,100060.50
2023-05-14T08:26:30.081Z,100063.34
2023-05-14T08:28:57.917Z,100065.88
2023-05-14T08:31:28.573Z,100046.19
2023-05-14T08:33:59.404Z,100063.72
2023-05-14T08:36:27.361Z,100051.84
2023-05-14T08:38:55.223Z,100059.22
2023-05-14T08:41:23.232Z,100056.63
2023-05-14T08:44:00.335Z,100055.47
2023-05-14T08:46:30.757Z,100055.00
2023-05-14T08:49:16.100Z,100042.47
2023-05-14T08:51:47.184Z,100052.69
2023-05-14T08:54:17.222Z,100043.53
2023-05-14T08:56:46.713Z,100041.34
2023-05-14T08:59:14.739Z,100046.19
2023-05-14T09:01:48.280Z,100038.78
2023-05-14T09:04:16.655Z,100040.47
2023-05-14T09:06:51.869Z,100053.88
2023-05-14T09:09:23.074Z,100050.16
2023-05-14T09:11:52.334Z,100051.78
2023-05-14T09:14:21.039Z,100044.28
2023-05-14T09:16:50.117Z,100033.25
2023-05-14T09:19:21.916Z,100045.78
2023-05-14T09:21:50.113Z,100038.94
2023-05-14T09:24:22.647Z,100045.22
2023-05-14T09:26:55.153Z,100046.16
2023-05-14T09:29:27.665Z,100041.09
2023-05-14T09:31:56.856Z,100047.03
2023-05-14T09:34:28.942Z,100032.56
2023-05-14T09:36:58.720Z,100045.34
2023-05-14T09:39:26.808Z,100032.50
2023-05-14T09:41:55.240Z,100039.31
2023-05-14T09:44:23.683Z,100045.53
2023-05-14T09:46:52.740Z,100041.53
2023-05-14T09:49:21.078Z,100035.59
2023-05-14T09:51:49.602Z,100042.38
2023-05-14T09:54:17.727Z,100039.06
2023-05-14T09:56:45.578Z,100040.25
2023-05-14T09:59:13.701Z,100034.81
2023-05-14T10:01:43.773Z,100035.06
2023-05-14T10:04:12.341Z,100041.63
2023-05-14T10:06:42.255Z,100031.97
2023-05-14T10:09:14.129Z,100036.00
2023-05-14T10:11:46.432Z,100034.03
2023-05-14T10:14:25.651Z,100034.59
2023-05-14T10:16:54.294Z,100030.28
2023-05-14T10:19:24.618Z,100026.28
2023-05-14T10:22:04.622Z,100025.69
2023-05-14T10:24:33.064Z,100033.00
2023-05-14T10:27:01.452Z,100014.91
2023-05-14T10:29:37.440Z,100018.09
2023-05-14T10:32:07.220Z,100023.00
2023-05-14T10:34:44.165Z,100030.41
2023-05-14T10:37:14.883Z,100026.72
2023-05-14T10:39:46.008Z,100020.56
2023-05-14T10:42:27.658Z,100021.72
2023-05-14T10:45:01.902Z,100026.25
2023-05-14T10:47:37.488Z,100029.72
2023-05-14T10:50:07.902Z,100027.13
2023-05-14T10:52:35.931Z,100028.00
2023-05-14T10:55:10.932Z,100023.75
2023-05-14T10:57:39.843Z,100020.56
2023-05-14T11:00:09.183Z,100025.91
2023-05-14T11:02:38.773Z,100019.84
2023-05-14T11:05:08.779Z,100027.47
2023-05-14T11:07:38.648Z,100008.66
2023-05-14T11:10:11.723Z,100030.16
2023-05-14T11:12:41.171Z,100022.84
2023-05-14T11:15:10.865Z,100028.03
2023-05-14T11:17:40.827Z,100022.13
2023-05-14T11:20:09.724Z,100019.59
2023-05-14T11:22:39.327Z,100023.25
2023-05-14T11:25:07.919Z,100020.38
2023-05-14T11:27:38.303Z,100016.66
2023-05-14T11:30:27.009Z,100014.59
2023-05-14T11:32:56.036Z,100021.34
2023-05-14T11:35:24.330Z,100005.50
2023-05-14T11:37:52.749Z,100004.41
2023-05-14T11:40:21.028Z,100014.94
2023-05-14T11:42:51.555Z,100014.88
2023-05-14T11:45:30.120Z,100008.00
2023-05-14T11:47:58.255Z,99996.56
2023-05-14T11:50:26.257Z,100005.78
2023-05-14T11:52:57.322Z,100012.56
2023-05-14T11:55:25.945Z,100018.53
2023-05-14T11:58:01.519Z,99997.78
2023-05-14T12:00:29.380Z,99997.81
2023-05-14T12:02:57.335Z,100006.88
2023-05-14T12:05:25.674Z,100009.47
2023-05-14T12:07:53.441Z,100004.66
2023-05-14T12:10:21.274Z,100014.88
2023-05-14T12:12:49.427Z,100011.72
2023-05-14T12:15:17.480Z,100004.66
2023-05-14T12:17:51.953Z,100005.34
2023-05-14T12:20:20.261Z,100017.31
2023-05-14T12:22:48.212Z,100008.22
2023-05-14T12:25:16.625Z,100013.88
2023-05-14T12:27:45.717Z,100012.19
2023-05-14T12:32:46.014Z,100020.94
2023-05-14T12:35:13.868Z,100003.03
2023-05-14T12:37:42.699Z,100006.97
2023-05-14T12:40:14.112Z,99994.13
2023-05-14T12:42:42.025Z,100012.25
2023-05-14T12:45:10.384Z,100006.56
2023-05-14T12:47:38.337Z,100008.22
2023-05-14T12:50:07.044Z,100007.06
2023-05-14T12:52:39.653Z,100016.25
2023-05-14T12:55:13.467Z,100004.03
2023-05-14T12:57:42.104Z,100006.34
2023-05-14T13:00:13.937Z,100002.13
2023-05-14T13:02:43.713Z,100003.03
2023-05-14T13:05:15.428Z,99998.81
2023-05-14T13:07:43.379Z,100002.53
2023-05-14T13:10:11.732Z,100000.84
2023-05-14T13:12:39.927Z,100001.97
2023-05-14T13:15:10.170Z,100003.13
2023-05-14T13:17:38.204Z,100019.00
2023-05-14T13:20:06.893Z,100011.00
2023-05-14T13:22:37.814Z,100017.84
2023-05-14T13:25:06.551Z,100015.56
2023-05-14T13:27:35.986Z,100014.44
2023-05-14T13:30:04.555Z,100005.66
2023-05-14T13:32:33.059Z,100008.78
2023-05-14T13:35:00.984Z,100002.78
2023-05-14T13:37:31.295Z,100021.53
2023-05-14T13:40:04.646Z,100021.50
2023-05-14T13:42:32.834Z,100031.47
2023-05-14T13:45:01.274Z,100024.34
2023-05-14T13:47:33.699Z,100024.03
2023-05-14T13:50:01.819Z,100015.81
2023-05-14T13:52:33.664Z,100013.84
2023-05-14T13:55:01.839Z,100008.41
2023-05-14T13:57:33.952Z,100020.91
2023-05-14T14:00:01.759Z,100017.22
2023-05-14T14:02:34.523Z,100021.72
2023-05-14T14:05:02.525Z,100008.94
2023-05-14T14:07:32.723Z,100016.31
2023-05-14T14:10:01.738Z,100017.72
2023-05-14T14:12:33.528Z,100034.53
2023-05-14T14:15:02.898Z,100021.22
2023-05-14T14:17:35.134Z,100028.84
2023-05-14T14:20:06.139Z,100017.50
2023-05-14T14:22:34.353Z,100006.09
2023-05-14T14:25:02.664Z,100012.63
2023-05-14T14:27:34.157Z,100020.03
2023-05-14T14:30:01.987Z,100011.53
2023-05-14T14:32:33.203Z,100018.84
2023-05-14T14:35:01.506Z,100027.34
2023-05-14T14:37:30.978Z,100030.16
2023-05-14T14:39:58.875Z,100008.84
2023-05-14T14:42:26.666Z,100026.44
2023-05-14T14:44:54.433Z,100027.03
2023-05-14T14:47:22.317Z,100028.19
2023-05-14T14:49:50.098Z,100026.16
2023-05-14T14:52:18.000Z,100019.63
2023-05-14T14:54:45.801Z,100025.81
2023-05-14T14:57:13.594Z,100020.66
2023-05-14T14:59:41.524Z,100031.16
2023-05-14T15:02:10.045Z,100027.72
2023-05-14T15:04:38.844Z,100018.59
2023-05-14T15:07:06.617Z,100031.09
2023-05-14T15:09:34.354Z,100021.19
2023-05-14T15:12:02.290Z,100024.31
2023-05-14T15:14:30.153Z,100018.59
2023-05-14T15:16:58.024Z,100028.19
2023-05-14T15:19:25.853Z,100024.84
2023-05-14T15:21:53.636Z,100020.84
2023-05-14T15:24:24.043Z,100023.13
2023-05-14T15:26:53.386Z,100023.13
2023-05-14T15:29:21.613Z,100023.09
2023-05-14T15:31:49.670Z,100015.69
2023-05-14T15:34:17.596Z,100014.78
2023-05-14T15:36:45.383Z,100022.13
2023-05-14T15:39:13.173Z,100020.75
2023-05-14T15:41:41.099Z,100013.94
2023-05-14T15:44:08.966Z,100024.13
2023-05-14T15:46:38.104Z,100019.00
2023-05-14T15:49:06.215Z,100020.97
2023-05-14T15:51:34.808Z,100017.91
2023-05-14T15:54:02.720Z,100018.72
2023-05-14T15:56:31.098Z,100024.56
2023-05-14T15:58:59.034Z,100019.13
2023-05-14T16:01:26.861Z,100019.63
2023-05-14T16:03:54.996Z,100018.75
2023-05-14T16:06:22.933Z,100013.91
2023-05-14T16:08:52.400Z,100013.22
2023-05-14T16:11:21.568Z,100018.00
2023-05-14T16:13:49.388Z,100020.25
2023-05-14T16:16:17.200Z,100019.34
2023-05-14T16:18:45.205Z,100015.25
2023-05-14T16:21:13.024Z,100020.88
2023-05-14T16:23:41.399Z,100034.38
2023-05-14T16:26:09.216Z,100035.00
2023-05-14T16:28:37.077Z,100032.09
2023-05-14T16:31:04.852Z,100025.25
2023-05-14T16:33:32.685Z,100028.09
2023-05-14T16:36:00.459Z,100043.91
2023-05-14T16:38:28.195Z,100029.13
2023-05-14T16:40:56.023Z,100038.13
2023-05-14T16:43:23.863Z,100038.38
2023-05-14T16:45:51.724Z,100043.78
2023-05-14T16:48:19.547Z,100036.41
2023-05-14T16:50:47.289Z,100038.97
2023-05-14T16:53:15.059Z,100048.84
2023-05-14T16:55:42.900Z,100047.06
2023-05-14T16:58:10.897Z,100046.78
2023-05-14T17:00:38.784Z,100051.84
2023-05-14T17:03:07.411Z,100048.69
2023-05-14T17:05:35.823Z,100055.72
2023-05-14T17:08:04.865Z,100050.47
2023-05-14T17:10:33.457Z,100049.72
2023-05-14T17:13:01.364Z,100060.09
2023-05-14T17:15:29.888Z,100051.16
2023-05-14T17:17:57.970Z,100055.06
2023-05-14T17:20:26.303Z,100067.13
2023-05-14T17:22:54.039Z,100068.69
2023-05-14T17:25:23.935Z,100063.94
2023-05-14T17:27:52.900Z,100063.00
2023-05-14T17:30:20.803Z,100053.88
2023-05-14T17:32:50.900Z,100068.25
2023-05-14T17:35:19.055Z,100070.06
2023-05-14T17:37:46.891Z,100074.59
2023-05-14T17:40:14.655Z,100080.16
2023-05-14T17:42:42.579Z,100079.19
2023-05-14T17:45:10.755Z,100066.53
2023-05-14T17:47:38.631Z,100086.38
2023-05-14T17:50:07.267Z,100083.56
2023-05-14T17:52:35.338Z,100075.88
2023-05-14T17:55:03.300Z,100087.56
2023-05-14T17:57:32.171Z,100078.50
2023-05-14T18:00:00.152Z,100090.53
2023-05-14T18:02:28.217Z,100091.66
2023-05-14T18:04:56.140Z,100090.47
2023-05-14T18:07:24.156Z,100093.78
2023-05-14T18:09:53.206Z,100093.09
2023-05-14T18:12:21.038Z,100091.31
2023-05-14T18:14:48.844Z,100090.53
2023-05-14T18:17:17.431Z,100096.94
2023-05-14T18:19:45.324Z,100100.00
2023-05-14T18:22:13.266Z,100103.59
2023-05-14T18:24:41.275Z,100100.50
2023-05-14T18:27:09.217Z,100101.63
2023-05-14T18:29:37.054Z,100103.31
2023-05-14T18:32:05.540Z,100108.59
2023-05-14T18:34:33.357Z,100097.47
2023-05-14T18:37:02.428Z,100098.50
2023-05-14T18:39:30.359Z,100103.88
2023-05-14T18:41:58.244Z,100103.50
2023-05-14T18:44:26.218Z,100099.84
2023-05-14T18:46:55.163Z,100104.53
2023-05-14T18:49:23.180Z,100099.66
2023-05-14T18:51:51.110Z,100108.44
2023-05-14T18:54:18.975Z,100108.59
2023-05-14T18:56:49.761Z,100114.59
2023-05-14T18:59:20.691Z,100100.91
2023-05-14T19:01:48.709Z,100084.22
2023-05-14T19:04:19.776Z,100097.63
2023-05-14T19:06:53.983Z,100084.47
2023-05-14T19:09:22.062Z,100088.03
2023-05-14T19:11:53.060Z,100102.16
2023-05-14T19:14:21.436Z,100104.22
2023-05-14T19:16:49.319Z,100105.91
2023-05-14T19:19:17.402Z,100109.84
2023-05-14T19:21:45.236Z,100114.38
2023-05-14T19:24:23.264Z,100105.19
2023-05-14T19:26:51.200Z,100115.88
2023-05-14T19:29:19.211Z,100113.31
2023-05-14T19:31:47.492Z,100121.63
2023-05-14T19:34:15.449Z,100115.75
2023-05-14T19:36:43.395Z,100116.88
2023-05-14T19:39:11.194Z,100122.03
2023-05-14T19:41:39.254Z,100115.75
2023-05-14T19:44:07.192Z,100117.84
2023-05-14T19:46:37.408Z,100117.47
2023-05-14T19:49:05.292Z,100119.56
2023-05-14T19:51:33.254Z,100117.75
2023-05-14T19:54:01.325Z,100116.88
2023-05-14T19:56:29.237Z,100109.41
2023-05-14T19:58:57.032Z,100115.06
2023-05-14T20:01:24.961Z,100113.94
2023-05-14T20:03:52.976Z,100115.91
2023-05-14T20:06:20.809Z,100112.34
2023-05-14T20:08:48.875Z,100113.22
2023-05-14T20:11:18.169Z,100112.22
2023-05-14T20:13:46.277Z,100117.00
2023-05-14T20:16:16.924Z,100115.66
2023-05-14T20:18:45.058Z,100119.56
2023-05-14T20:21:13.027Z,100115.53
2023-05-14T20:23:40.943Z,100111.38
2023-05-14T20:26:08.747Z,100116.16
2023-05-14T20:28:36.588Z,100117.72
2023-05-14T20:31:04.516Z,100112.34
2023-05-14T20:33:32.457Z,100113.84
2023-05-14T20:36:00.427Z,100107.69
2023-05-14T20:38:29.598Z,100113.69
2023-05-14T20:40:57.910Z,100119.59
2023-05-14T20:43:27.809Z,100111.84
2023-05-14T20:45:58.479Z,100129.13
2023-05-14T20:48:26.398Z,100116.03
2023-05-14T20:50:54.424Z,100117.84
2023-05-14T20:53:22.313Z,100120.06
2023-05-14T20:55:50.178Z,100117.84
2023-05-14T20:58:17.960Z,100106.31
2023-05-14T21:00:46.021Z,100117.72
2023-05-14T21:03:13.944Z,100112.59
2023-05-14T21:05:43.782Z,100108.78
2023-05-14T21:08:11.666Z,100124.56
2023-05-14T21:10:39.442Z,100122.00
2023-05-14T21:13:10.336Z,100112.94
2023-05-14T21:15:38.182Z,100125.06
2023-05-14T21:18:06.082Z,100126.63
2023-05-14T21:20:34.037Z,100123.81
2023-05-14T21:23:01.961Z,100121.84
2023-05-14T21:25:31.068Z,100125.06
2023-05-14T21:27:58.999Z,100106.31
2023-05-14T21:30:26.832Z,100110.72
2023-05-14T21:32:54.754Z,100110.72
2023-05-14T21:35:25.938Z,100113.31
2023-05-14T21:37:54.337Z,100122.22
2023-05-14T21:40:22.143Z,100119.53
2023-05-14T21:42:50.105Z,100111.81
2023-05-14T21:45:18.072Z,100128.69
2023-05-14T21:47:45.893Z,100130.91
2023-05-14T21:50:13.907Z,100122.91
2023-05-14T21:52:41.759Z,100126.84
2023-05-14T21:55:09.724Z,100123.41
2023-05-14T21:57:37.555Z,100132.72
2023-05-14T22:00:10.154Z,100122.66
2023-05-14T22:02:38.008Z,100124.00
2023-05-14T22:05:06.115Z,100118.47
2023-05-14T22:07:33.935Z,100116.66
2023-05-14T22:10:01.768Z,100123.75
2023-05-14T22:12:29.847Z,100112.50
2023-05-14T22:14:57.602Z,100125.97
2023-05-14T22:17:25.468Z,100118.84
2023-05-14T22:19:53.182Z,100128.63
2023-05-14T22:22:20.931Z,100127.16
2023-05-14T22:24:48.685Z,100122.25
2023-05-14T22:27:16.616Z,100129.59
2023-05-14T22:29:44.732Z,100120.16
2023-05-14T22:32:12.534Z,100116.00
2023-05-14T22:34:40.381Z,100129.59
2023-05-14T22:37:08.752Z,100132.41
2023-05-14T22:39:36.501Z,100123.19
2023-05-14T22:42:04.501Z,100113.16
2023-05-14T22:44:32.380Z,100115.97
2023-05-14T22:47:00.115Z,100114.91
2023-05-14T22:49:27.907Z,100122.69
2023-05-14T22:51:55.821Z,100117.97
2023-05-14T22:54:23.702Z,100129.22
2023-05-14T22:56:51.705Z,100126.03
2023-05-14T22:59:20.581Z,100117.63
2023-05-14T23:01:49.922Z,100133.38
2023-05-14T23:04:17.841Z,100124.19
2023-05-14T23:06:45.690Z,100132.13
2023-05-14T23:09:13.522Z,100132.38
2023-05-14T23:11:41.193Z,100132.38
2023-05-14T23:14:09.116Z,100132.38
2023-05-14T23:16:39.439Z,100130.03
2023-05-14T23:19:07.388Z,100120.59
2023-05-14T23:21:35.325Z,100127.78
2023-05-14T23:24:03.098Z,100128.97
2023-05-14T23:26:30.951Z,100127.25
2023-05-14T23:28:58.753Z,100142.38
2023-05-14T23:31:26.731Z,100137.00
2023-05-14T23:33:54.721Z,100134.28
2023-05-14T23:36:22.793Z,100135.13
2023-05-14T23:38:51.021Z,100137.22
2023-05-14T23:41:18.981Z,100131.22
2023-05-14T23:43:46.817Z,100136.69
2023-05-14T23:46:15.051Z,100127.47
2023-05-14T23:48:42.892Z,100132.88
2023-05-14T23:51:10.753Z,100131.47
2023-05-14T23:53:38.568Z,100133.03
2023-05-14T23:56:06.594Z,100138.25
2023-05-14T23:58:34.402Z,100139.34
